createdAt,value
2019-05-29T00:01:39.044Z,79.97
2019-05-29T00:04:08.117Z,79.10
2019-05-29T00:06:36.412Z,80.05
2019-05-29T00:09:06.347Z,80.59
2019-05-29T00:11:34.534Z,81.00
2019-05-29T00:14:17.865Z,80.41
2019-05-29T00:16:32.655Z,79.48
2019-05-29T00:19:00.859Z,78.70
2019-05-29T00:21:29.048Z,79.27
2019-05-29T00:23:57.509Z,79.82
2019-05-29T00:26:26.301Z,79.42
2019-05-29T00:28:54.782Z,79.40
2019-05-29T00:31:22.983Z,79.98
2019-05-29T00:33:51.640Z,79.60
2019-05-29T00:36:20.110Z,79.18
2019-05-29T00:38:48.301Z,81.07
2019-05-29T00:41:17.144Z,80.78
2019-05-29T00:43:45.939Z,81.09
2019-05-29T00:46:15.564Z,81.03
2019-05-29T00:48:43.771Z,81.63
2019-05-29T00:51:12.964Z,81.26
2019-05-29T00:53:41.241Z,81.31
2019-05-29T00:56:10.436Z,81.45
2019-05-29T00:58:41.436Z,82.44
2019-05-29T01:01:11.435Z,81.73
2019-05-29T01:03:39.578Z,81.63
2019-05-29T01:06:07.780Z,83.14
2019-05-29T01:08:36.051Z,82.63
2019-05-29T01:11:04.288Z,82.52
2019-05-29T01:13:32.440Z,82.41
2019-05-29T01:16:00.640Z,82.30
2019-05-29T01:18:28.847Z,83.12
2019-05-29T01:20:57.028Z,83.27
2019-05-29T01:23:25.218Z,84.90
2019-05-29T01:25:53.438Z,84.62
2019-05-29T01:28:23.113Z,84.16
2019-05-29T01:30:51.879Z,84.75
2019-05-29T01:33:23.001Z,84.20
2019-05-29T01:35:49.960Z,84.57
2019-05-29T01:38:19.272Z,84.30
2019-05-29T01:40:47.593Z,83.93
2019-05-29T01:43:15.784Z,84.54
2019-05-29T01:45:43.979Z,84.31
2019-05-29T01:48:12.740Z,83.74
2019-05-29T01:50:40.946Z,83.78
2019-05-29T01:53:09.157Z,84.10
2019-05-29T01:55:37.354Z,83.90
2019-05-29T01:58:05.553Z,84.54
2019-05-29T02:00:33.751Z,83.78
2019-05-29T02:03:02.598Z,84.18
2019-05-29T02:05:30.806Z,84.55
2019-05-29T02:07:58.988Z,84.21
2019-05-29T02:10:27.184Z,85.22
2019-05-29T02:12:55.444Z,85.99
2019-05-29T02:15:31.724Z,85.72
2019-05-29T02:17:53.554Z,86.09
2019-05-29T02:20:23.186Z,85.40
2019-05-29T02:22:51.318Z,85.57
2019-05-29T02:25:22.343Z,85.41
2019-05-29T02:27:50.632Z,86.23
2019-05-29T02:30:21.076Z,85.76
2019-05-29T02:32:48.776Z,85.79
2019-05-29T02:35:17.989Z,85.42
2019-05-29T02:37:46.757Z,85.35
2019-05-29T02:40:15.390Z,85.79
2019-05-29T02:42:43.593Z,85.35
2019-05-29T02:45:11.782Z,85.16
2019-05-29T02:47:40.054Z,85.04
2019-05-29T02:50:08.518Z,84.76
2019-05-29T02:52:36.735Z,84.56
2019-05-29T02:55:07.660Z,86.08
2019-05-29T02:57:35.948Z,84.65
2019-05-29T03:00:06.052Z,84.36
2019-05-29T03:02:34.242Z,85.58
2019-05-29T03:05:02.438Z,84.73
2019-05-29T03:07:32.253Z,85.47
2019-05-29T03:10:00.554Z,85.69
2019-05-29T03:12:29.442Z,86.50
2019-05-29T03:14:58.123Z,84.93
2019-05-29T03:17:27.921Z,84.14
2019-05-29T03:19:56.255Z,85.16
2019-05-29T03:22:26.122Z,84.46
2019-05-29T03:24:54.746Z,84.34
2019-05-29T03:27:22.936Z,85.59
2019-05-29T03:29:51.898Z,84.60
2019-05-29T03:32:20.670Z,86.07
2019-05-29T03:34:48.878Z,85.80
2019-05-29T03:37:17.829Z,86.34
2019-05-29T03:39:46.016Z,86.53
2019-05-29T03:42:14.210Z,85.58
2019-05-29T03:44:42.428Z,84.77
2019-05-29T03:47:11.393Z,86.49
2019-05-29T03:49:39.872Z,85.69
2019-05-29T03:52:08.240Z,86.57
2019-05-29T03:54:36.431Z,84.62
2019-05-29T03:57:05.012Z,85.81
2019-05-29T03:59:35.115Z,85.02
2019-05-29T04:02:03.130Z,85.77
2019-05-29T04:04:32.845Z,86.34
2019-05-29T04:07:02.485Z,86.41
2019-05-29T04:09:31.407Z,84.11
2019-05-29T04:12:00.277Z,83.44
2019-05-29T04:14:29.751Z,83.34
2019-05-29T04:17:00.295Z,82.47
2019-05-29T04:19:30.041Z,82.56
2019-05-29T04:21:59.132Z,83.11
2019-05-29T04:24:28.024Z,83.23
2019-05-29T04:26:56.666Z,80.76
2019-05-29T04:29:24.859Z,80.51
2019-05-29T04:31:53.619Z,80.23
2019-05-29T04:34:21.817Z,80.70
2019-05-29T04:36:50.582Z,79.06
2019-05-29T04:39:18.774Z,79.89
2019-05-29T04:41:46.971Z,82.10
2019-05-29T04:44:15.938Z,79.52
2019-05-29T04:46:45.706Z,77.20
2019-05-29T04:49:13.897Z,80.46
2019-05-29T04:51:42.093Z,77.58
2019-05-29T04:54:10.793Z,76.11
2019-05-29T04:56:39.200Z,78.00
2019-05-29T04:59:09.002Z,75.39
2019-05-29T05:01:37.780Z,75.86
2019-05-29T05:04:06.061Z,75.16
2019-05-29T05:06:35.285Z,75.93
2019-05-29T05:09:05.066Z,75.34
2019-05-29T05:11:33.400Z,74.97
2019-05-29T05:14:01.969Z,75.37
2019-05-29T05:16:30.195Z,75.18
2019-05-29T05:18:58.398Z,71.82
2019-05-29T05:21:26.591Z,72.20
2019-05-29T05:23:56.953Z,71.43
2019-05-29T05:26:25.253Z,73.52
2019-05-29T05:28:54.089Z,75.38
2019-05-29T05:31:22.269Z,70.55
2019-05-29T05:33:50.506Z,71.03
2019-05-29T05:36:18.695Z,70.53
2019-05-29T05:38:47.670Z,67.75
2019-05-29T05:41:15.855Z,67.72
2019-05-29T05:43:44.820Z,69.97
2019-05-29T05:46:13.005Z,71.02
2019-05-29T05:48:41.658Z,68.49
2019-05-29T05:51:09.971Z,69.48
2019-05-29T05:53:38.171Z,69.37
2019-05-29T05:56:06.366Z,69.43
2019-05-29T05:58:35.690Z,67.83
2019-05-29T06:01:04.056Z,66.59
2019-05-29T06:03:32.255Z,66.16
2019-05-29T06:06:00.444Z,65.28
2019-05-29T06:08:28.649Z,66.42
2019-05-29T06:10:56.910Z,67.42
2019-05-29T06:13:25.112Z,65.31
2019-05-29T06:15:53.314Z,65.94
2019-05-29T06:18:23.083Z,64.41
2019-05-29T06:20:51.849Z,62.94
2019-05-29T06:23:20.055Z,64.74
2019-05-29T06:25:48.251Z,63.81
2019-05-29T06:28:17.215Z,63.94
2019-05-29T06:30:45.428Z,63.56
2019-05-29T06:33:13.617Z,62.76
2019-05-29T06:35:41.817Z,64.17
2019-05-29T06:38:10.016Z,60.65
2019-05-29T06:40:43.911Z,60.26
2019-05-29T06:43:23.854Z,62.76
2019-05-29T06:45:52.378Z,60.83
2019-05-29T06:48:41.722Z,60.45
2019-05-29T06:50:57.411Z,60.36
2019-05-29T06:53:24.995Z,59.80
2019-05-29T06:55:54.925Z,58.70
2019-05-29T06:58:23.183Z,59.88
2019-05-29T07:00:51.376Z,60.92
2019-05-29T07:03:19.587Z,61.06
2019-05-29T07:05:52.322Z,61.59
2019-05-29T07:08:24.149Z,58.62
2019-05-29T07:10:48.508Z,61.36
2019-05-29T07:13:16.796Z,58.75
2019-05-29T07:15:45.732Z,59.90
2019-05-29T07:18:15.017Z,59.71
2019-05-29T07:20:43.289Z,60.23
2019-05-29T07:23:11.479Z,58.99
2019-05-29T07:25:40.820Z,56.37
2019-05-29T07:28:09.932Z,57.50
2019-05-29T07:30:39.185Z,58.11
2019-05-29T07:33:07.582Z,59.90
2019-05-29T07:35:37.132Z,56.74
2019-05-29T07:38:05.448Z,57.71
2019-05-29T07:40:35.992Z,57.42
2019-05-29T07:43:04.320Z,61.02
2019-05-29T07:45:32.522Z,56.65
2019-05-29T07:48:00.714Z,55.14
2019-05-29T07:50:28.917Z,52.58
2019-05-29T07:52:57.138Z,56.20
2019-05-29T07:55:26.152Z,57.33
2019-05-29T07:57:54.374Z,52.83
2019-05-29T08:00:22.559Z,57.39
2019-05-29T08:02:50.748Z,55.41
2019-05-29T08:05:20.293Z,55.04
2019-05-29T08:07:49.682Z,54.18
2019-05-29T08:10:20.970Z,52.50
2019-05-29T08:12:54.266Z,52.50
2019-05-29T08:15:19.603Z,52.63
2019-05-29T08:17:48.461Z,55.55
2019-05-29T08:20:16.664Z,51.09
2019-05-29T08:22:46.439Z,52.10
2019-05-29T08:25:14.741Z,51.47
2019-05-29T08:27:42.931Z,53.46
2019-05-29T08:30:11.210Z,48.73
2019-05-29T08:32:40.819Z,50.03
2019-05-29T08:35:09.148Z,53.47
2019-05-29T08:37:37.346Z,54.46
2019-05-29T08:40:07.167Z,52.00
2019-05-29T08:42:35.358Z,52.54
2019-05-29T08:45:07.775Z,52.11
2019-05-29T08:47:35.956Z,49.58
2019-05-29T08:50:18.298Z,50.96
2019-05-29T08:52:37.526Z,54.82
2019-05-29T08:55:05.907Z,49.99
2019-05-29T08:57:34.101Z,48.12
2019-05-29T09:00:02.471Z,50.30
2019-05-29T09:02:30.665Z,51.45
2019-05-29T09:04:58.875Z,50.58
2019-05-29T09:07:27.070Z,49.95
2019-05-29T09:09:55.750Z,50.39
2019-05-29T09:12:24.743Z,48.73
2019-05-29T09:14:52.933Z,51.01
2019-05-29T09:17:22.147Z,48.97
2019-05-29T09:19:50.387Z,50.17
2019-05-29T09:22:19.182Z,50.92
2019-05-29T09:24:47.357Z,51.81
2019-05-29T09:27:17.146Z,53.47
2019-05-29T09:29:45.339Z,48.69
2019-05-29T09:32:15.075Z,43.39
2019-05-29T09:34:47.325Z,46.73
2019-05-29T09:37:14.192Z,49.08
2019-05-29T09:39:43.298Z,48.46
2019-05-29T09:42:11.497Z,51.36
2019-05-29T09:44:40.253Z,49.42
2019-05-29T09:47:08.568Z,45.59
2019-05-29T09:49:36.763Z,44.24
2019-05-29T09:52:05.133Z,44.87
2019-05-29T09:54:33.481Z,48.47
2019-05-29T09:57:02.838Z,45.52
2019-05-29T09:59:31.351Z,46.66
2019-05-29T10:02:03.492Z,45.48
2019-05-29T10:04:33.030Z,50.57
2019-05-29T10:07:02.410Z,49.38
2019-05-29T10:09:32.042Z,46.99
2019-05-29T10:12:04.107Z,47.36
2019-05-29T10:14:30.154Z,45.28
2019-05-29T10:17:02.089Z,45.58
2019-05-29T10:19:28.283Z,48.32
2019-05-29T10:21:58.318Z,42.87
2019-05-29T10:24:27.084Z,42.87
2019-05-29T10:26:55.542Z,43.27
2019-05-29T10:29:25.175Z,43.99
2019-05-29T10:31:53.631Z,42.48
2019-05-29T10:34:21.852Z,44.28
2019-05-29T10:36:53.019Z,41.46
2019-05-29T10:39:19.978Z,40.92
2019-05-29T10:41:48.862Z,42.05
2019-05-29T10:44:17.159Z,42.45
2019-05-29T10:46:48.384Z,41.09
2019-05-29T10:49:16.152Z,40.26
2019-05-29T10:52:00.267Z,42.82
2019-05-29T10:54:14.276Z,44.10
2019-05-29T10:56:42.479Z,45.10
2019-05-29T10:59:11.515Z,43.67
2019-05-29T11:01:39.722Z,45.27
2019-05-29T11:04:08.684Z,46.61
2019-05-29T11:06:40.534Z,43.20
2019-05-29T11:09:07.173Z,41.21
2019-05-29T11:11:35.373Z,39.04
2019-05-29T11:14:03.833Z,36.84
2019-05-29T11:16:32.126Z,41.69
2019-05-29T11:19:00.302Z,40.72
2019-05-29T11:21:28.634Z,39.08
2019-05-29T11:23:58.205Z,38.69
2019-05-29T11:26:27.135Z,41.36
2019-05-29T11:28:56.530Z,36.98
2019-05-29T11:31:24.910Z,36.22
2019-05-29T11:33:53.239Z,38.18
2019-05-29T11:36:21.380Z,40.74
2019-05-29T11:38:50.500Z,42.69
2019-05-29T11:41:26.168Z,38.91
2019-05-29T11:43:50.666Z,40.01
2019-05-29T11:46:18.956Z,38.83
2019-05-29T11:48:47.324Z,31.80
2019-05-29T11:51:15.516Z,35.87
2019-05-29T11:53:43.719Z,38.16
2019-05-29T11:56:12.039Z,38.11
2019-05-29T11:58:41.010Z,34.83
2019-05-29T12:01:09.195Z,29.79
2019-05-29T12:03:57.844Z,31.55
2019-05-29T12:06:07.395Z,29.65
2019-05-29T12:08:35.599Z,34.64
2019-05-29T12:11:06.938Z,38.97
2019-05-29T12:13:34.490Z,38.47
2019-05-29T12:16:02.863Z,41.14
2019-05-29T12:18:31.059Z,40.18
2019-05-29T12:21:01.105Z,40.75
2019-05-29T12:23:29.189Z,40.35
2019-05-29T12:26:18.823Z,40.54
2019-05-29T12:28:27.605Z,43.89
2019-05-29T12:30:56.893Z,40.08
2019-05-29T12:33:25.182Z,39.08
2019-05-29T12:35:53.366Z,40.03
2019-05-29T12:38:21.606Z,43.69
2019-05-29T12:40:49.772Z,35.46
2019-05-29T12:43:27.331Z,37.07
2019-05-29T12:45:48.335Z,34.88
2019-05-29T12:48:16.903Z,34.01
2019-05-29T12:50:45.424Z,39.77
2019-05-29T12:53:29.021Z,34.99
2019-05-29T12:55:43.505Z,35.61
2019-05-29T12:58:11.752Z,34.06
2019-05-29T13:00:39.947Z,33.57
2019-05-29T13:03:08.616Z,33.58
2019-05-29T13:05:36.810Z,35.93
2019-05-29T13:08:05.414Z,36.74
2019-05-29T13:10:33.552Z,36.23
2019-05-29T13:13:08.430Z,38.27
2019-05-29T13:15:31.726Z,37.02
2019-05-29T13:18:03.983Z,36.14
2019-05-29T13:20:29.959Z,41.14
2019-05-29T13:22:59.645Z,37.97
2019-05-29T13:25:28.165Z,43.31
2019-05-29T13:27:59.868Z,37.58
2019-05-29T13:30:28.424Z,37.58
2019-05-29T13:33:00.066Z,39.34
2019-05-29T13:35:26.660Z,41.93
2019-05-29T13:37:54.957Z,34.58
2019-05-29T13:40:23.152Z,34.58
2019-05-29T13:42:51.382Z,34.89
2019-05-29T13:45:21.115Z,34.99
2019-05-29T13:47:49.881Z,36.29
2019-05-29T13:50:18.239Z,36.26
2019-05-29T13:52:46.440Z,36.21
2019-05-29T13:55:14.634Z,35.84
2019-05-29T13:57:42.840Z,35.23
2019-05-29T14:00:33.941Z,37.16
2019-05-29T14:02:43.730Z,38.23
2019-05-29T14:05:11.924Z,39.42
2019-05-29T14:07:40.119Z,36.35
2019-05-29T14:10:09.616Z,39.82
2019-05-29T14:12:39.632Z,42.61
2019-05-29T14:15:09.835Z,36.29
2019-05-29T14:17:37.604Z,33.26
2019-05-29T14:20:06.786Z,34.78
2019-05-29T14:22:35.027Z,32.61
2019-05-29T14:25:05.311Z,32.86
2019-05-29T14:27:34.040Z,33.97
2019-05-29T14:30:03.866Z,31.67
2019-05-29T14:32:32.940Z,31.65
2019-05-29T14:35:04.285Z,31.03
2019-05-29T14:37:31.583Z,32.23
2019-05-29T14:40:01.604Z,30.36
2019-05-29T14:42:30.445Z,33.01
2019-05-29T14:44:59.244Z,32.16
2019-05-29T14:47:29.014Z,32.11
2019-05-29T14:49:57.219Z,32.91
2019-05-29T14:52:25.411Z,30.52
2019-05-29T14:54:53.618Z,27.73
2019-05-29T14:57:26.049Z,28.68
2019-05-29T14:59:51.755Z,31.40
2019-05-29T15:02:23.902Z,32.30
2019-05-29T15:04:49.856Z,32.39
2019-05-29T15:07:22.800Z,31.39
2019-05-29T15:09:50.010Z,30.09
2019-05-29T15:12:18.192Z,33.59
2019-05-29T15:14:46.392Z,30.17
2019-05-29T15:17:15.494Z,30.71
2019-05-29T15:19:43.874Z,30.11
2019-05-29T15:22:13.960Z,30.11
2019-05-29T15:24:59.651Z,32.22
2019-05-29T15:27:12.229Z,29.53
2019-05-29T15:29:40.434Z,29.73
2019-05-29T15:32:10.367Z,33.57
2019-05-29T15:34:40.147Z,31.49
2019-05-29T15:37:12.192Z,33.71
2019-05-29T15:39:39.838Z,31.48
2019-05-29T15:42:08.932Z,33.13
2019-05-29T15:44:37.218Z,34.53
2019-05-29T15:47:06.768Z,31.27
2019-05-29T15:49:36.668Z,34.37
2019-05-29T15:52:05.027Z,36.61
2019-05-29T15:54:33.243Z,32.79
2019-05-29T15:57:01.414Z,36.04
2019-05-29T15:59:29.604Z,32.33
2019-05-29T16:01:58.582Z,35.40
2019-05-29T16:04:27.258Z,33.82
2019-05-29T16:06:56.060Z,33.54
2019-05-29T16:09:24.253Z,32.90
2019-05-29T16:11:52.494Z,40.82
2019-05-29T16:14:20.666Z,43.82
2019-05-29T16:16:48.863Z,46.14
2019-05-29T16:19:18.295Z,49.60
2019-05-29T16:21:46.544Z,50.26
2019-05-29T16:24:14.758Z,46.17
2019-05-29T16:26:42.949Z,46.17
2019-05-29T16:29:12.256Z,43.48
2019-05-29T16:31:40.722Z,41.71
2019-05-29T16:34:08.974Z,40.93
2019-05-29T16:36:37.406Z,45.45
2019-05-29T16:39:09.016Z,44.24
2019-05-29T16:41:37.213Z,42.88
2019-05-29T16:44:05.406Z,40.77
2019-05-29T16:46:33.615Z,42.13
2019-05-29T16:49:02.484Z,44.04
2019-05-29T16:51:30.681Z,47.57
2019-05-29T16:53:58.868Z,49.31
2019-05-29T16:56:27.080Z,51.70
2019-05-29T16:58:55.273Z,51.70
2019-05-29T17:01:23.957Z,52.87
2019-05-29T17:03:52.249Z,56.64
2019-05-29T17:06:20.448Z,56.70
2019-05-29T17:08:48.647Z,58.27
2019-05-29T17:11:16.845Z,59.15
2019-05-29T17:13:45.043Z,60.91
2019-05-29T17:16:14.364Z,58.29
2019-05-29T17:18:43.173Z,58.07
2019-05-29T17:21:11.381Z,59.37
2019-05-29T17:23:40.353Z,59.79
2019-05-29T17:26:11.065Z,57.77
2019-05-29T17:28:38.305Z,59.44
2019-05-29T17:31:06.920Z,60.76
2019-05-29T17:33:35.119Z,58.14
2019-05-29T17:36:03.315Z,61.05
2019-05-29T17:38:31.518Z,59.76
2019-05-29T17:40:59.740Z,57.89
2019-05-29T17:43:28.721Z,58.77
2019-05-29T17:45:57.283Z,57.92
2019-05-29T17:48:27.535Z,58.81
2019-05-29T17:50:55.940Z,55.42
2019-05-29T17:53:28.848Z,57.44
2019-05-29T17:55:57.267Z,57.32
2019-05-29T17:58:26.687Z,57.87
2019-05-29T18:00:54.932Z,56.48
2019-05-29T18:03:24.233Z,57.99
2019-05-29T18:05:52.583Z,58.52
2019-05-29T18:08:20.826Z,61.88
2019-05-29T18:10:49.026Z,61.24
2019-05-29T18:13:17.239Z,62.92
2019-05-29T18:15:45.443Z,63.83
2019-05-29T18:18:14.405Z,64.71
2019-05-29T18:20:42.596Z,61.47
2019-05-29T18:23:10.803Z,64.54
2019-05-29T18:25:38.992Z,63.95
2019-05-29T18:28:07.191Z,66.97
2019-05-29T18:30:35.386Z,65.56
2019-05-29T18:33:03.583Z,63.20
2019-05-29T18:35:31.772Z,64.52
2019-05-29T18:37:59.978Z,65.27
2019-05-29T18:40:28.499Z,62.17
2019-05-29T18:42:56.700Z,61.80
2019-05-29T18:45:26.258Z,59.75
2019-05-29T18:47:55.192Z,60.02
2019-05-29T18:50:23.665Z,60.04
2019-05-29T18:52:52.674Z,63.19
2019-05-29T18:55:20.916Z,62.96
2019-05-29T18:57:49.116Z,63.46
2019-05-29T19:00:17.849Z,64.88
2019-05-29T19:02:48.811Z,64.99
2019-05-29T19:05:17.013Z,65.00
2019-05-29T19:07:45.586Z,63.27
2019-05-29T19:10:14.354Z,62.76
2019-05-29T19:12:42.591Z,62.70
2019-05-29T19:15:10.791Z,63.31
2019-05-29T19:17:38.996Z,64.43
2019-05-29T19:20:07.220Z,62.42
2019-05-29T19:22:35.639Z,62.88
2019-05-29T19:25:05.155Z,62.54
2019-05-29T19:27:41.602Z,63.85
2019-05-29T19:30:05.420Z,61.61
2019-05-29T19:32:34.009Z,59.63
2019-05-29T19:35:02.736Z,60.08
2019-05-29T19:37:32.107Z,58.13
2019-05-29T19:40:11.183Z,56.60
2019-05-29T19:42:39.385Z,58.16
2019-05-29T19:45:08.318Z,58.61
2019-05-29T19:47:36.989Z,56.65
2019-05-29T19:50:11.191Z,56.85
2019-05-29T19:52:38.581Z,56.99
2019-05-29T19:55:07.078Z,56.44
2019-05-29T19:57:53.916Z,56.72
2019-05-29T20:00:08.117Z,56.62
2019-05-29T20:02:37.893Z,55.11
2019-05-29T20:05:06.380Z,57.70
2019-05-29T20:07:35.251Z,57.82
2019-05-29T20:10:03.842Z,56.94
2019-05-29T20:12:33.760Z,56.92
2019-05-29T20:15:02.012Z,57.43
2019-05-29T20:17:30.533Z,58.04
2019-05-29T20:19:58.872Z,57.13
2019-05-29T20:22:28.467Z,57.87
2019-05-29T20:24:57.507Z,58.90
2019-05-29T20:27:26.268Z,59.40
2019-05-29T20:29:54.616Z,59.06
2019-05-29T20:32:22.861Z,58.55
2019-05-29T20:34:54.055Z,58.51
2019-05-29T20:44:18.985Z,57.83
2019-05-29T20:46:47.180Z,58.30
2019-05-29T20:49:15.387Z,58.68
2019-05-29T20:51:43.583Z,57.49
2019-05-29T20:54:11.807Z,58.07
2019-05-29T20:56:40.063Z,58.38
2019-05-29T20:59:08.355Z,58.00
2019-05-29T21:01:40.946Z,57.99
2019-05-29T21:04:06.606Z,58.16
2019-05-29T21:06:34.798Z,60.87
2019-05-29T21:09:03.002Z,61.33
2019-05-29T21:11:31.200Z,62.23
2019-05-29T21:14:00.187Z,62.36
2019-05-29T21:16:28.361Z,62.46
2019-05-29T21:18:56.572Z,62.63
2019-05-29T21:21:24.765Z,59.99
2019-05-29T21:23:52.974Z,62.10
2019-05-29T21:26:21.948Z,59.28
2019-05-29T21:28:50.922Z,61.99
2019-05-29T21:31:19.325Z,61.16
2019-05-29T21:33:49.341Z,59.75
2019-05-29T21:36:17.692Z,58.91
2019-05-29T21:38:46.478Z,59.98
2019-05-29T21:41:15.344Z,59.04
2019-05-29T21:43:44.692Z,60.22
2019-05-29T21:46:13.084Z,59.44
2019-05-29T21:48:41.283Z,59.05
2019-05-29T21:51:09.544Z,59.37
2019-05-29T21:53:37.743Z,59.16
2019-05-29T21:56:05.956Z,58.24
2019-05-29T21:58:34.449Z,58.02
2019-05-29T22:01:03.223Z,58.24
2019-05-29T22:03:31.476Z,57.61
2019-05-29T22:05:59.650Z,57.54
2019-05-29T22:08:29.180Z,57.07
2019-05-29T22:10:57.555Z,57.60
2019-05-29T22:13:25.752Z,57.72
2019-05-29T22:15:54.809Z,57.93
2019-05-29T22:18:23.110Z,57.79
2019-05-29T22:21:46.172Z,57.09
2019-05-29T22:24:14.392Z,56.47
2019-05-29T22:26:42.621Z,58.34
2019-05-29T22:29:17.834Z,58.28
2019-05-29T22:31:40.822Z,57.98
2019-05-29T22:34:09.044Z,59.48
2019-05-29T22:36:40.282Z,60.20
2019-05-29T22:39:08.473Z,59.69
2019-05-29T22:41:36.691Z,60.56
2019-05-29T22:44:04.895Z,61.39
2019-05-29T22:46:33.112Z,61.13
2019-05-29T22:49:02.046Z,59.18
2019-05-29T22:51:30.347Z,59.55
2019-05-29T22:53:58.563Z,59.47
2019-05-29T22:56:26.984Z,59.74
2019-05-29T22:58:56.022Z,59.98
2019-05-29T23:01:24.286Z,60.68
2019-05-29T23:03:52.503Z,59.65
2019-05-29T23:06:20.802Z,59.87
2019-05-29T23:08:52.053Z,58.53
2019-05-29T23:11:20.426Z,60.33
2019-05-29T23:13:48.619Z,60.19
2019-05-29T23:16:16.857Z,59.12
2019-05-29T23:18:45.055Z,59.36
2019-05-29T23:21:13.277Z,57.52
2019-05-29T23:23:41.464Z,58.48
2019-05-29T23:26:09.664Z,57.15
2019-05-29T23:28:38.632Z,57.48
2019-05-29T23:31:06.832Z,58.18
2019-05-29T23:33:35.358Z,58.66
2019-05-29T23:36:03.560Z,57.14
2019-05-29T23:38:31.747Z,57.05
2019-05-29T23:40:59.947Z,58.18
2019-05-29T23:43:28.156Z,59.47
2019-05-29T23:45:57.413Z,58.78
2019-05-29T23:48:25.701Z,59.09
2019-05-29T23:50:53.913Z,58.59
2019-05-29T23:53:22.111Z,56.99
2019-05-29T23:55:50.786Z,57.27
2019-05-29T23:58:18.984Z,56.99
